Time;durP1;ratioP1;P1;durP2;ratioP2;P2;SDS_P1;SDS_P2;PMS_P1;PMS_P2;Temp;Humidity;BMP_temperature;BMP_pressure;BME280_temperature;BME280_humidity;BME280_pressure;Samples;Min_cycle;Max_cycle;Signal;HPM_P1;HPM_P2
2022/11/17 00:00:43;;;;;;;1.10;0.90;;;11.90;91.00;;;;;;6213010;23;20780;-68
2022/11/17 00:03:14;;;;;;;1.30;1.17;;;11.90;91.10;;;;;;6211277;23;20438;-68
2022/11/17 00:05:43;;;;;;;0.90;0.90;;;11.90;91.10;;;;;;6187582;23;20419;-68
2022/11/17 00:08:13;;;;;;;1.37;0.90;;;11.90;91.10;;;;;;6186386;23;20458;-68
2022/11/17 00:10:41;;;;;;;1.40;1.00;;;11.90;91.10;;;;;;6210818;23;20854;-68
2022/11/17 00:15:56;;;;;;;1.50;0.77;;;11.90;91.10;;;;;;6185866;23;20415;-69
2022/11/17 00:21:22;;;;;;;1.50;1.20;;;11.90;91.40;;;;;;6186891;23;20418;-68
2022/11/17 00:23:53;;;;;;;1.63;1.07;;;11.90;91.30;;;;;;6185332;23;20716;-69
2022/11/17 00:26:23;;;;;;;2.63;0.90;;;11.90;91.30;;;;;;6186319;23;20418;-68
2022/11/17 00:28:53;;;;;;;4.43;0.93;;;11.90;91.40;;;;;;6185534;23;20530;-69
2022/11/17 00:34:12;;;;;;;1.27;1.03;;;11.90;91.50;;;;;;6185870;23;20467;-69
2022/11/17 00:36:43;;;;;;;1.57;0.97;;;11.90;91.60;;;;;;6186922;23;20435;-69
2022/11/17 00:39:14;;;;;;;0.83;0.70;;;11.90;91.60;;;;;;6184950;23;20439;-69
2022/11/17 00:41:42;;;;;;;1.50;1.13;;;11.90;91.60;;;;;;6186724;23;20392;-69
2022/11/17 00:44:11;;;;;;;0.87;0.87;;;11.90;91.80;;;;;;6185716;23;20439;-69
2022/11/17 00:46:40;;;;;;;0.97;0.90;;;11.90;91.90;;;;;;6185710;23;20861;-69
2022/11/17 00:49:10;;;;;;;0.90;0.70;;;11.90;91.90;;;;;;6185543;23;20841;-69
2022/11/17 00:51:39;;;;;;;1.00;0.90;;;11.90;91.90;;;;;;6186998;23;20373;-69
2022/11/17 00:54:12;;;;;;;2.50;0.80;;;11.90;91.90;;;;;;6185654;23;20463;-69
2022/11/17 00:56:42;;;;;;;1.70;1.00;;;11.90;91.80;;;;;;6212662;23;20434;-69
2022/11/17 00:59:10;;;;;;;0.67;0.60;;;11.90;92.10;;;;;;6185342;23;20459;-69
2022/11/17 01:01:38;;;;;;;1.40;0.90;;;11.90;92.10;;;;;;6185884;23;20714;-69
2022/11/17 01:04:07;;;;;;;3.23;0.50;;;11.90;92.10;;;;;;6185582;23;20466;-69
2022/11/17 01:06:38;;;;;;;1.47;0.70;;;11.90;92.00;;;;;;6186148;23;20788;-69
2022/11/17 01:09:10;;;;;;;0.93;0.87;;;11.90;92.50;;;;;;6184567;23;20530;-69
2022/11/17 01:11:42;;;;;;;1.33;0.80;;;11.90;92.40;;;;;;6186943;23;20373;-69
2022/11/17 01:14:13;;;;;;;2.03;0.90;;;11.90;92.40;;;;;;6185637;23;20431;-68
2022/11/17 01:16:42;;;;;;;2.20;1.00;;;11.90;92.40;;;;;;6185805;23;20404;-68
2022/11/17 01:19:12;;;;;;;3.17;0.70;;;11.90;92.50;;;;;;6211778;23;20424;-69
2022/11/17 01:21:40;;;;;;;0.77;0.77;;;11.90;92.50;;;;;;6186521;23;20375;-68
2022/11/17 01:24:11;;;;;;;2.40;0.80;;;11.80;92.40;;;;;;6185326;23;20435;-68
2022/11/17 01:26:40;;;;;;;0.60;0.50;;;11.90;92.30;;;;;;6186174;23;20935;-68
2022/11/17 01:29:11;;;;;;;1.20;0.80;;;11.90;92.30;;;;;;6185174;23;20489;-68
2022/11/17 01:31:42;;;;;;;0.80;0.57;;;11.80;92.30;;;;;;6185314;23;20873;-69
2022/11/17 01:34:11;;;;;;;0.60;0.60;;;11.90;92.50;;;;;;6185430;23;20428;-68
2022/11/17 01:39:23;;;;;;;0.67;0.53;;;11.90;92.60;;;;;;6183822;23;20439;-68
2022/11/17 01:41:52;;;;;;;0.60;0.50;;;11.90;92.50;;;;;;6185326;23;20387;-68
2022/11/17 01:45:06;;;;;;;1.10;0.70;;;11.90;92.50;;;;;;6184694;23;20978;-68
2022/11/17 01:47:41;;;;;;;1.03;0.80;;;11.90;92.80;;;;;;6211458;23;20415;-68
2022/11/17 01:50:18;;;;;;;1.17;0.70;;;11.90;92.80;;;;;;6186207;23;20411;-68
2022/11/17 01:52:48;;;;;;;0.83;0.70;;;11.80;92.50;;;;;;6185063;23;20465;-68
2022/11/17 01:55:19;;;;;;;0.87;0.70;;;11.90;93.10;;;;;;6212035;23;20436;-68
2022/11/17 01:57:54;;;;;;;0.80;0.60;;;11.80;92.70;;;;;;6212232;23;20368;-68
2022/11/17 02:00:22;;;;;;;1.87;0.77;;;11.80;92.70;;;;;;6184667;23;20789;-68
2022/11/17 02:02:53;;;;;;;1.40;0.60;;;11.90;92.70;;;;;;6185603;23;20831;-68
2022/11/17 02:05:32;;;;;;;1.43;0.60;;;11.90;92.60;;;;;;6185722;23;20500;-68
2022/11/17 02:08:04;;;;;;;0.80;0.63;;;11.90;92.50;;;;;;6186214;23;20394;-68
2022/11/17 02:10:35;;;;;;;1.00;0.63;;;11.80;92.60;;;;;;6184531;23;20889;-68
2022/11/17 02:13:03;;;;;;;0.80;0.60;;;11.90;92.70;;;;;;6186481;23;20464;-68
2022/11/17 02:15:31;;;;;;;0.60;0.60;;;11.90;92.70;;;;;;6184357;23;20459;-68
2022/11/17 02:18:02;;;;;;;0.80;0.50;;;11.80;92.60;;;;;;6185948;23;20384;-68
2022/11/17 02:20:43;;;;;;;1.97;0.60;;;11.80;92.80;;;;;;6185418;23;20372;-68
2022/11/17 02:23:49;;;;;;;0.50;0.40;;;11.80;92.70;;;;;;6186008;23;20948;-68
2022/11/17 02:26:47;;;;;;;1.03;0.77;;;11.80;92.70;;;;;;6185019;23;20984;-68
2022/11/17 02:29:24;;;;;;;0.70;0.40;;;11.80;92.70;;;;;;6198618;23;20687;-68
2022/11/17 02:31:57;;;;;;;0.60;0.50;;;11.80;93.20;;;;;;6185195;23;20364;-68
2022/11/17 02:34:33;;;;;;;0.70;0.50;;;11.80;92.70;;;;;;6184587;23;20907;-68
2022/11/17 02:37:09;;;;;;;1.20;0.40;;;11.80;92.80;;;;;;6185851;23;20376;-68
2022/11/17 02:39:43;;;;;;;2.40;0.43;;;11.80;92.70;;;;;;6185516;23;20388;-69
2022/11/17 02:42:16;;;;;;;0.70;0.50;;;11.80;92.80;;;;;;6185356;23;20402;-69
2022/11/17 02:44:55;;;;;;;0.93;0.60;;;11.80;92.70;;;;;;6185392;23;20460;-68
2022/11/17 02:47:27;;;;;;;0.97;0.50;;;11.80;92.90;;;;;;6183660;23;20434;-68
2022/11/17 02:50:00;;;;;;;1.83;0.40;;;11.80;92.90;;;;;;6185666;23;20412;-68
2022/11/17 02:52:30;;;;;;;0.90;0.50;;;11.80;92.80;;;;;;6187112;23;20384;-68
2022/11/17 02:55:00;;;;;;;0.70;0.70;;;11.80;92.90;;;;;;6187695;23;20415;-68
2022/11/17 02:57:29;;;;;;;0.80;0.53;;;11.80;93.10;;;;;;6186257;23;20419;-68
2022/11/17 03:00:01;;;;;;;0.70;0.57;;;11.80;93.00;;;;;;6181569;23;20444;-69
2022/11/17 03:02:45;;;;;;;0.50;0.43;;;11.80;93.30;;;;;;6186736;23;20372;-69
2022/11/17 03:05:18;;;;;;;0.60;0.50;;;11.80;93.20;;;;;;6212755;23;20498;-68
2022/11/17 03:07:58;;;;;;;1.23;0.40;;;11.80;92.90;;;;;;6186745;23;20489;-69
2022/11/17 03:10:32;;;;;;;0.60;0.40;;;11.80;93.10;;;;;;6161482;23;20449;-68
2022/11/17 03:13:07;;;;;;;1.03;0.77;;;11.80;93.30;;;;;;6187850;23;20431;-69
2022/11/17 03:15:46;;;;;;;2.10;0.93;;;11.80;93.20;;;;;;6186122;23;20411;-68
2022/11/17 03:18:20;;;;;;;1.97;0.60;;;11.80;93.00;;;;;;6186785;23;20432;-68
2022/11/17 03:20:57;;;;;;;0.63;0.50;;;11.80;93.00;;;;;;6162461;23;20449;-69
2022/11/17 03:23:33;;;;;;;0.70;0.40;;;11.80;92.90;;;;;;6211842;23;20912;-70
2022/11/17 03:26:07;;;;;;;1.20;0.70;;;11.80;93.10;;;;;;6186795;23;20410;-70
2022/11/17 03:28:37;;;;;;;0.80;0.60;;;11.80;93.00;;;;;;6186915;23;20428;-68
2022/11/17 03:31:08;;;;;;;0.57;0.40;;;11.80;92.90;;;;;;6186949;23;20442;-69
2022/11/17 03:33:39;;;;;;;0.50;0.30;;;11.80;93.00;;;;;;6186917;23;20431;-69
2022/11/17 03:36:12;;;;;;;0.80;0.40;;;11.80;92.80;;;;;;6189036;23;20506;-69
2022/11/17 03:38:46;;;;;;;0.97;0.57;;;11.80;92.90;;;;;;6189149;23;21011;-70
2022/11/17 03:41:16;;;;;;;0.80;0.50;;;11.80;93.00;;;;;;6212708;23;20384;-70
2022/11/17 03:43:48;;;;;;;0.80;0.47;;;11.80;93.00;;;;;;6186843;23;20817;-68
2022/11/17 03:46:20;;;;;;;1.33;0.50;;;11.80;92.90;;;;;;6186976;23;20486;-69
2022/11/17 03:48:53;;;;;;;0.73;0.50;;;11.80;93.00;;;;;;6186116;23;20534;-70
2022/11/17 03:51:23;;;;;;;1.47;0.60;;;11.80;92.90;;;;;;6187690;23;20450;-69
2022/11/17 03:53:53;;;;;;;2.87;0.80;;;11.80;92.90;;;;;;6161768;23;20503;-69
2022/11/17 03:56:31;;;;;;;1.07;0.97;;;11.80;92.90;;;;;;6186438;23;20454;-70
2022/11/17 03:59:03;;;;;;;2.90;1.00;;;11.70;92.70;;;;;;6211037;23;20943;-69
2022/11/17 04:01:34;;;;;;;4.23;1.10;;;11.80;92.80;;;;;;6186172;23;20380;-70
2022/11/17 04:04:03;;;;;;;2.27;1.17;;;11.80;92.70;;;;;;6185468;23;20431;-69
2022/11/17 04:06:31;;;;;;;2.20;1.70;;;11.80;92.80;;;;;;6187274;23;20404;-69
2022/11/17 04:08:59;;;;;;;1.67;0.80;;;11.80;92.90;;;;;;6185175;23;20451;-70
2022/11/17 04:17:00;;;;;;;2.80;0.90;;;11.80;92.60;;;;;;6186047;23;20838;-71
2022/11/17 04:19:28;;;;;;;1.70;1.30;;;11.80;92.60;;;;;;6185887;23;20446;-69
2022/11/17 04:21:57;;;;;;;2.90;1.00;;;11.80;92.60;;;;;;6186787;23;20373;-69
2022/11/17 04:24:25;;;;;;;4.60;1.47;;;11.80;92.60;;;;;;6211232;23;20904;-68
2022/11/17 04:29:39;;;;;;;1.97;1.20;;;11.80;92.50;;;;;;6211721;23;20403;-69
2022/11/17 04:32:09;;;;;;;3.23;1.43;;;11.80;92.70;;;;;;6186657;23;20404;-68
2022/11/17 04:34:40;;;;;;;1.83;1.00;;;11.80;92.50;;;;;;6210960;23;20491;-70
2022/11/17 04:37:16;;;;;;;1.43;0.80;;;11.80;92.50;;;;;;6186579;23;20875;-69
2022/11/17 04:39:45;;;;;;;1.73;1.13;;;11.80;92.60;;;;;;6186104;23;20834;-69
2022/11/17 04:42:12;;;;;;;1.77;0.77;;;11.70;92.50;;;;;;6213446;23;20648;-69
2022/11/17 04:44:41;;;;;;;2.70;1.20;;;11.80;92.70;;;;;;6187156;23;20373;-69
2022/11/17 04:47:11;;;;;;;2.00;1.13;;;11.80;92.60;;;;;;6185498;23;20400;-70
2022/11/17 04:49:39;;;;;;;1.37;0.90;;;11.80;92.70;;;;;;6186543;23;20384;-69
2022/11/17 04:52:08;;;;;;;2.30;1.03;;;11.80;92.70;;;;;;6186400;23;20455;-70
2022/11/17 04:54:36;;;;;;;3.00;0.90;;;11.80;92.70;;;;;;6212518;23;20442;-69
2022/11/17 04:57:04;;;;;;;2.27;1.27;;;11.80;92.70;;;;;;6186294;23;20381;-70
2022/11/17 04:59:33;;;;;;;3.37;1.13;;;11.80;92.80;;;;;;6185490;23;20804;-69
2022/11/17 05:02:01;;;;;;;3.30;0.97;;;11.80;92.90;;;;;;6210615;23;20391;-69
2022/11/17 05:07:20;;;;;;;2.03;1.00;;;11.80;92.90;;;;;;6186654;23;20909;-69
2022/11/17 05:09:48;;;;;;;1.40;0.90;;;11.80;93.00;;;;;;6185632;23;20445;-68
2022/11/17 05:15:02;;;;;;;1.60;0.90;;;11.80;92.90;;;;;;6186434;23;20442;-70
2022/11/17 05:17:30;;;;;;;1.57;1.10;;;11.80;93.20;;;;;;6185464;23;20484;-70
2022/11/17 05:20:00;;;;;;;1.30;1.00;;;11.80;93.20;;;;;;6213691;23;20559;-70
2022/11/17 05:25:13;;;;;;;2.10;0.70;;;11.80;93.20;;;;;;6186329;23;20796;-70
2022/11/17 05:27:42;;;;;;;2.97;1.20;;;11.80;93.40;;;;;;6212267;23;20455;-70
2022/11/17 05:30:11;;;;;;;1.80;1.20;;;11.80;93.40;;;;;;6186206;23;20944;-70
2022/11/17 05:32:40;;;;;;;3.03;1.13;;;11.80;93.20;;;;;;6212015;23;20420;-71
2022/11/17 05:35:10;;;;;;;4.10;1.20;;;11.80;93.40;;;;;;6212848;23;20923;-71
2022/11/17 05:37:38;;;;;;;1.27;0.83;;;11.80;93.40;;;;;;6211186;23;21164;-71
2022/11/17 05:40:08;;;;;;;2.70;0.80;;;11.70;93.10;;;;;;6185652;23;20470;-70
2022/11/17 05:42:36;;;;;;;2.97;0.90;;;11.80;93.30;;;;;;6185171;23;20531;-70
2022/11/17 05:45:06;;;;;;;2.03;1.17;;;11.80;93.30;;;;;;6186318;23;20432;-70
2022/11/17 05:47:34;;;;;;;1.97;0.70;;;11.80;93.40;;;;;;6185259;23;20454;-70
2022/11/17 05:50:03;;;;;;;0.80;0.73;;;11.70;93.10;;;;;;6211379;23;20458;-69
2022/11/17 05:52:32;;;;;;;2.33;1.07;;;11.80;93.30;;;;;;6185542;23;20451;-69
2022/11/17 05:55:01;;;;;;;2.00;0.90;;;11.80;93.10;;;;;;6185634;23;20907;-71
2022/11/17 05:57:32;;;;;;;1.20;0.90;;;11.80;93.10;;;;;;6185925;23;20396;-71
2022/11/17 06:00:03;;;;;;;2.30;0.87;;;11.80;93.10;;;;;;6210990;23;20398;-70
2022/11/17 06:02:44;;;;;;;1.50;0.77;;;11.80;92.80;;;;;;6210737;23;20963;-70
2022/11/17 06:05:13;;;;;;;0.97;0.70;;;11.80;92.70;;;;;;6185509;23;20466;-75
2022/11/17 06:07:48;;;;;;;3.27;1.00;;;11.80;93.00;;;;;;6186286;23;20645;-71
2022/11/17 06:10:17;;;;;;;2.70;0.80;;;11.80;93.20;;;;;;6210169;23;20384;-70
2022/11/17 06:12:45;;;;;;;1.33;0.70;;;11.80;93.10;;;;;;6210648;23;20408;-71
2022/11/17 06:15:14;;;;;;;3.00;1.00;;;11.80;92.90;;;;;;6212880;23;20445;-71
2022/11/17 06:17:48;;;;;;;1.77;0.70;;;11.80;92.90;;;;;;6211785;23;20446;-72
2022/11/17 06:20:21;;;;;;;3.17;0.67;;;11.80;92.70;;;;;;6212049;23;20430;-69
2022/11/17 06:22:51;;;;;;;1.20;0.93;;;11.70;92.80;;;;;;6210803;23;20435;-71
2022/11/17 06:25:20;;;;;;;0.90;0.60;;;11.70;92.70;;;;;;6185130;23;20510;-70
2022/11/17 06:27:50;;;;;;;1.27;0.90;;;11.70;92.60;;;;;;6185838;23;20474;-71
2022/11/17 06:30:19;;;;;;;2.10;0.60;;;11.80;92.80;;;;;;6185469;23;20384;-71
2022/11/17 06:32:48;;;;;;;1.13;0.50;;;11.70;92.80;;;;;;6211297;23;20944;-70
2022/11/17 06:35:17;;;;;;;0.93;0.60;;;11.70;92.40;;;;;;6186465;23;20412;-71
2022/11/17 06:37:46;;;;;;;3.03;1.13;;;11.70;92.30;;;;;;6185792;23;20451;-70
2022/11/17 06:40:16;;;;;;;1.20;0.60;;;11.70;92.40;;;;;;6210436;23;20377;-69
2022/11/17 06:45:33;;;;;;;1.30;0.90;;;11.80;92.40;;;;;;6184900;23;20407;-70
2022/11/17 06:48:01;;;;;;;2.97;0.70;;;11.80;92.40;;;;;;6210084;23;20519;-70
2022/11/17 06:50:30;;;;;;;1.00;0.80;;;11.70;92.20;;;;;;6212050;23;20715;-71
2022/11/17 06:52:59;;;;;;;0.80;0.70;;;11.70;92.20;;;;;;6210737;23;20431;-69
2022/11/17 06:55:29;;;;;;;0.90;0.67;;;11.70;92.20;;;;;;6184862;23;20488;-70
2022/11/17 06:58:02;;;;;;;0.70;0.70;;;11.70;92.10;;;;;;6212761;23;20374;-69
2022/11/17 07:00:31;;;;;;;0.83;0.80;;;11.70;92.10;;;;;;6210693;23;20410;-70
2022/11/17 07:03:00;;;;;;;1.00;0.70;;;11.70;92.00;;;;;;6213483;23;20435;-70
2022/11/17 07:05:29;;;;;;;1.13;0.50;;;11.70;92.10;;;;;;6188531;23;20400;-69
2022/11/17 07:07:58;;;;;;;1.33;0.70;;;11.70;92.00;;;;;;6186090;23;20400;-70
2022/11/17 07:10:30;;;;;;;3.17;0.70;;;11.70;91.90;;;;;;6185231;23;20376;-71
2022/11/17 07:12:59;;;;;;;2.33;0.90;;;11.70;91.80;;;;;;6209283;23;20482;-69
2022/11/17 07:15:28;;;;;;;1.40;0.57;;;11.70;91.80;;;;;;6209480;23;20418;-68
2022/11/17 07:17:57;;;;;;;1.17;0.70;;;11.70;91.90;;;;;;6185525;23;20387;-70
2022/11/17 07:20:26;;;;;;;0.90;0.67;;;11.70;91.90;;;;;;6185731;23;20384;-70
2022/11/17 07:22:59;;;;;;;2.63;0.63;;;11.70;91.80;;;;;;6185275;23;20828;-70
2022/11/17 07:25:29;;;;;;;1.20;0.60;;;11.70;91.90;;;;;;6211964;23;20740;-69
2022/11/17 07:27:59;;;;;;;1.23;1.13;;;11.70;91.80;;;;;;6211481;23;20458;-69
2022/11/17 07:30:28;;;;;;;1.47;0.80;;;11.70;91.80;;;;;;6184296;23;20392;-69
2022/11/17 07:32:58;;;;;;;1.17;0.77;;;11.70;91.90;;;;;;6185276;23;20757;-69
2022/11/17 07:35:27;;;;;;;1.70;0.63;;;11.70;91.90;;;;;;6186272;23;20410;-70
2022/11/17 07:38:00;;;;;;;1.23;0.80;;;11.70;91.80;;;;;;6185422;23;20376;-69
2022/11/17 07:40:31;;;;;;;1.00;0.80;;;11.70;91.80;;;;;;6187240;23;20384;-70
2022/11/17 07:43:00;;;;;;;1.30;0.57;;;11.70;91.80;;;;;;6212784;23;20372;-69
2022/11/17 07:45:30;;;;;;;0.53;0.30;;;11.70;91.70;;;;;;6186745;23;20494;-70
2022/11/17 07:48:01;;;;;;;2.60;0.80;;;11.70;91.70;;;;;;6186209;23;20446;-69
2022/11/17 07:50:30;;;;;;;2.67;0.70;;;11.70;91.60;;;;;;6187255;23;20368;-70
2022/11/17 07:52:58;;;;;;;3.10;0.70;;;11.70;91.70;;;;;;6212668;23;20430;-71
2022/11/17 07:55:28;;;;;;;1.73;1.20;;;11.70;92.10;;;;;;6211384;23;20459;-70
2022/11/17 07:57:58;;;;;;;1.93;0.70;;;11.70;91.70;;;;;;6186475;23;20466;-69
2022/11/17 08:00:28;;;;;;;0.93;0.73;;;11.70;91.60;;;;;;6186049;23;20398;-70
2022/11/17 08:03:00;;;;;;;1.27;0.70;;;11.70;91.60;;;;;;6187679;23;20376;-69
2022/11/17 08:05:30;;;;;;;0.70;0.50;;;11.70;91.60;;;;;;6187425;23;20721;-70
2022/11/17 08:08:00;;;;;;;1.00;0.60;;;11.70;91.60;;;;;;6211828;23;20436;-70
2022/11/17 08:10:30;;;;;;;1.53;0.73;;;11.70;91.70;;;;;;6186426;23;20396;-70
2022/11/17 08:13:00;;;;;;;0.80;0.50;;;11.70;91.60;;;;;;6187288;23;20779;-69
2022/11/17 08:15:29;;;;;;;0.60;0.40;;;11.70;91.60;;;;;;6212672;23;20407;-69
2022/11/17 08:17:59;;;;;;;1.37;0.50;;;11.70;91.60;;;;;;6212630;23;20459;-69
2022/11/17 08:20:29;;;;;;;1.07;0.50;;;11.70;91.60;;;;;;6213476;23;20848;-69
2022/11/17 08:22:58;;;;;;;2.40;0.60;;;11.70;91.50;;;;;;6213665;23;20784;-70
2022/11/17 08:25:27;;;;;;;1.43;0.57;;;11.70;91.80;;;;;;6211412;23;20490;-70
2022/11/17 08:27:58;;;;;;;0.60;0.40;;;11.70;91.50;;;;;;6185929;23;20522;-70
2022/11/17 08:30:27;;;;;;;1.33;0.50;;;11.70;91.60;;;;;;6212566;23;20673;-70
2022/11/17 08:32:56;;;;;;;1.00;0.67;;;11.70;91.50;;;;;;6187645;23;20520;-70
2022/11/17 08:35:25;;;;;;;2.30;1.03;;;11.70;91.60;;;;;;6187553;23;20770;-70
2022/11/17 08:37:54;;;;;;;1.00;0.60;;;11.70;91.50;;;;;;6186465;23;21122;-70
2022/11/17 08:40:23;;;;;;;2.33;1.00;;;11.70;91.40;;;;;;6186495;23;20765;-69
2022/11/17 08:42:53;;;;;;;1.00;0.50;;;11.70;91.40;;;;;;6186712;23;20483;-70
2022/11/17 08:45:30;;;;;;;2.20;0.90;;;11.80;91.40;;;;;;6212467;23;20418;-68
2022/11/17 08:47:59;;;;;;;1.33;0.50;;;11.80;91.30;;;;;;6212034;23;20956;-69
2022/11/17 08:50:28;;;;;;;2.97;0.77;;;11.80;91.10;;;;;;6212562;23;20391;-69
2022/11/17 08:52:56;;;;;;;2.40;0.70;;;11.80;90.80;;;;;;6186734;23;20424;-69
2022/11/17 08:55:25;;;;;;;2.07;0.43;;;11.80;90.80;;;;;;6211354;23;20748;-68
2022/11/17 08:57:54;;;;;;;1.57;0.67;;;11.80;90.60;;;;;;6210957;23;20797;-69
2022/11/17 09:00:23;;;;;;;0.60;0.40;;;11.80;90.60;;;;;;6123340;22;20498;-51
2022/11/17 09:02:53;;;;;;;0.73;0.50;;;11.80;90.60;;;;;;6083761;23;20419;-50
2022/11/17 09:05:22;;;;;;;2.00;0.63;;;11.80;90.50;;;;;;6036037;23;20393;-49
2022/11/17 09:07:50;;;;;;;0.90;0.43;;;11.80;90.50;;;;;;6035517;23;20937;-50
2022/11/17 09:10:19;;;;;;;0.70;0.50;;;11.80;90.40;;;;;;6036212;23;20400;-50
2022/11/17 09:12:47;;;;;;;1.90;0.70;;;11.80;90.40;;;;;;6036771;23;20435;-50
2022/11/17 09:15:16;;;;;;;0.80;0.60;;;11.80;90.40;;;;;;6036596;23;20384;-49
2022/11/17 09:17:46;;;;;;;0.70;0.50;;;11.80;90.40;;;;;;6036385;23;20397;-50
2022/11/17 09:20:17;;;;;;;0.80;0.60;;;11.80;90.30;;;;;;6036296;23;20865;-50
2022/11/17 09:22:48;;;;;;;0.80;0.50;;;11.80;90.20;;;;;;6061579;23;20423;-49
2022/11/17 09:25:17;;;;;;;1.13;0.40;;;11.80;90.30;;;;;;6036442;23;20389;-50
2022/11/17 09:27:49;;;;;;;0.87;0.47;;;11.80;90.30;;;;;;6036639;23;20392;-50
2022/11/17 09:30:20;;;;;;;0.87;0.50;;;11.90;90.30;;;;;;6036090;23;20408;-50
2022/11/17 09:32:49;;;;;;;1.40;0.50;;;11.90;90.30;;;;;;6036534;23;20489;-49
2022/11/17 09:35:19;;;;;;;0.60;0.50;;;11.90;90.30;;;;;;6061003;23;20373;-49
2022/11/17 09:37:47;;;;;;;1.37;0.53;;;11.80;90.20;;;;;;6035973;23;20405;-49
2022/11/17 09:40:19;;;;;;;0.83;0.43;;;11.90;90.30;;;;;;6035984;23;20401;-49
2022/11/17 09:42:48;;;;;;;1.07;0.50;;;11.80;90.20;;;;;;6060985;23;20444;-49
2022/11/17 09:45:22;;;;;;;0.73;0.50;;;11.90;90.20;;;;;;6061305;23;20460;-50
2022/11/17 09:47:57;;;;;;;1.03;0.50;;;11.90;90.20;;;;;;6084857;23;20435;-49
2022/11/17 09:50:53;;;;;;;0.70;0.40;;;11.90;90.20;;;;;;6084225;23;20373;-49
2022/11/17 09:53:26;;;;;;;0.93;0.50;;;11.90;90.10;;;;;;6060345;23;20448;-49
2022/11/17 09:55:58;;;;;;;1.13;0.60;;;11.90;90.10;;;;;;6035947;23;20839;-49
2022/11/17 09:58:32;;;;;;;0.80;0.70;;;11.90;90.00;;;;;;6036116;23;20388;-49
2022/11/17 10:01:02;;;;;;;0.50;0.40;;;11.90;90.10;;;;;;6082766;23;20741;-49
2022/11/17 10:03:33;;;;;;;0.70;0.40;;;11.80;90.00;;;;;;6060432;23;20440;-49
2022/11/17 10:06:14;;;;;;;0.63;0.40;;;11.90;90.10;;;;;;6036608;23;20476;-49
2022/11/17 10:08:52;;;;;;;0.80;0.47;;;11.90;90.10;;;;;;6060082;23;20439;-49
2022/11/17 10:11:32;;;;;;;1.10;0.70;;;11.90;90.10;;;;;;6059143;23;20935;-49
2022/11/17 10:14:13;;;;;;;0.70;0.50;;;11.90;90.20;;;;;;6081973;23;20203;-49
2022/11/17 10:16:43;;;;;;;1.20;0.40;;;11.90;90.20;;;;;;6035008;23;20475;-49
2022/11/17 10:19:19;;;;;;;0.90;0.60;;;11.90;90.10;;;;;;6034859;23;20442;-50
2022/11/17 10:21:51;;;;;;;0.73;0.43;;;11.90;90.00;;;;;;6083837;23;20369;-49
2022/11/17 10:24:37;;;;;;;1.00;0.50;;;11.90;90.00;;;;;;6034922;23;20441;-50
2022/11/17 10:27:18;;;;;;;1.47;0.73;;;11.90;90.00;;;;;;6084105;23;20420;-49
2022/11/17 10:29:57;;;;;;;1.00;0.60;;;11.90;90.00;;;;;;6036013;23;20724;-49
2022/11/17 10:32:26;;;;;;;1.50;0.63;;;11.90;90.00;;;;;;6035293;23;20428;-49
2022/11/17 10:34:55;;;;;;;1.10;0.30;;;11.90;89.90;;;;;;6035984;23;20511;-49
2022/11/17 10:37:30;;;;;;;1.70;0.50;;;11.90;89.80;;;;;;6058968;23;20893;-49
2022/11/17 10:40:27;;;;;;;0.57;0.30;;;11.90;89.80;;;;;;6035739;23;20377;-49
2022/11/17 10:43:03;;;;;;;1.03;0.50;;;11.90;89.80;;;;;;6104705;23;20417;-49
2022/11/17 10:45:32;;;;;;;1.47;0.40;;;11.90;89.80;;;;;;6034615;23;20889;-49
2022/11/17 10:48:19;;;;;;;1.70;0.57;;;11.90;89.50;;;;;;6035013;23;20920;-49
2022/11/17 10:50:55;;;;;;;1.33;0.53;;;11.90;89.60;;;;;;6083527;23;20769;-49
2022/11/17 10:53:35;;;;;;;0.80;0.70;;;11.90;89.50;;;;;;6034521;23;20463;-49
2022/11/17 10:56:15;;;;;;;1.40;0.50;;;11.90;89.60;;;;;;6035194;23;20373;-48
2022/11/17 10:59:06;;;;;;;0.60;0.40;;;11.90;89.50;;;;;;6034968;23;20523;-49
2022/11/17 11:01:37;;;;;;;0.70;0.40;;;11.90;89.40;;;;;;6034659;23;20617;-50
2022/11/17 11:04:32;;;;;;;0.70;0.57;;;11.90;89.40;;;;;;6034937;23;20494;-48
2022/11/17 11:07:10;;;;;;;0.60;0.50;;;11.90;89.50;;;;;;6035907;23;20717;-49
2022/11/17 11:10:03;;;;;;;2.03;0.57;;;11.90;89.60;;;;;;6081657;23;20443;-50
2022/11/17 11:13:14;;;;;;;1.33;0.50;;;11.90;89.50;;;;;;6055977;23;20987;-49
2022/11/17 11:18:42;;;;;;;0.40;0.40;;;11.90;89.40;;;;;;6037156;23;20822;-50
2022/11/17 11:21:18;;;;;;;1.10;0.50;;;11.90;89.40;;;;;;6037313;23;20400;-50
2022/11/17 11:23:59;;;;;;;3.77;1.30;;;11.80;89.10;;;;;;6083465;23;20778;-49
2022/11/17 11:26:48;;;;;;;0.50;0.30;;;11.90;89.30;;;;;;6084035;23;20381;-49
2022/11/17 11:29:28;;;;;;;0.80;0.50;;;11.90;89.40;;;;;;6035560;23;20440;-50
2022/11/17 11:32:17;;;;;;;0.60;0.40;;;11.90;89.20;;;;;;6084054;23;20438;-49
2022/11/17 11:35:31;;;;;;;0.70;0.43;;;11.90;89.20;;;;;;6036778;23;20428;-49
2022/11/17 11:38:27;;;;;;;0.60;0.40;;;11.90;89.10;;;;;;6036994;23;20874;-49
2022/11/17 11:41:08;;;;;;;0.70;0.50;;;11.90;88.90;;;;;;6057495;23;20928;-49
2022/11/17 11:43:48;;;;;;;0.87;0.50;;;11.90;89.00;;;;;;6036064;23;20439;-49
2022/11/17 11:46:21;;;;;;;1.13;0.40;;;11.90;89.00;;;;;;6036130;23;20853;-49
2022/11/17 11:48:54;;;;;;;0.60;0.40;;;11.90;89.00;;;;;;6060461;23;20519;-49
2022/11/17 11:51:27;;;;;;;0.87;0.30;;;11.90;89.00;;;;;;6084789;23;20389;-49
2022/11/17 11:54:01;;;;;;;0.60;0.37;;;11.90;89.00;;;;;;6035111;23;20440;-49
2022/11/17 11:56:33;;;;;;;1.27;0.63;;;11.90;88.90;;;;;;6036618;23;20456;-49
2022/11/17 11:59:06;;;;;;;0.60;0.33;;;11.90;88.80;;;;;;6035446;23;20444;-49
2022/11/17 12:01:43;;;;;;;0.93;0.47;;;11.90;88.80;;;;;;6061348;23;20381;-49
2022/11/17 12:04:24;;;;;;;0.60;0.40;;;11.90;88.90;;;;;;6060949;23;20901;-49
2022/11/17 12:07:01;;;;;;;0.87;0.53;;;11.90;88.80;;;;;;6085130;23;20777;-49
2022/11/17 12:09:46;;;;;;;1.23;0.40;;;11.90;88.80;;;;;;6035763;23;20436;-50
2022/11/17 12:12:17;;;;;;;1.17;0.70;;;11.90;88.80;;;;;;6036977;23;20424;-49
2022/11/17 12:15:30;;;;;;;2.07;0.60;;;11.90;88.70;;;;;;6084069;23;20432;-49
2022/11/17 12:18:01;;;;;;;1.77;0.50;;;11.90;88.60;;;;;;6036708;23;20376;-49
2022/11/17 12:20:56;;;;;;;1.00;0.50;;;11.90;88.60;;;;;;6035406;23;20424;-49
2022/11/17 12:23:57;;;;;;;1.33;0.63;;;11.90;89.80;;;;;;6060919;23;20443;-50
2022/11/17 12:26:27;;;;;;;2.50;0.50;;;11.90;88.40;;;;;;6037859;23;20430;-49
2022/11/17 12:29:30;;;;;;;0.93;0.40;;;11.90;88.60;;;;;;6035784;23;20922;-50
2022/11/17 12:32:02;;;;;;;0.93;0.57;;;11.90;88.40;;;;;;6151208;23;20737;-49
2022/11/17 12:34:34;;;;;;;1.80;0.60;;;11.90;88.60;;;;;;6050321;23;20531;-49
2022/11/17 12:37:28;;;;;;;0.87;0.50;;;11.90;88.50;;;;;;6084615;23;20376;-49
2022/11/17 12:39:59;;;;;;;0.70;0.47;;;11.90;88.60;;;;;;6035299;23;20732;-49
2022/11/17 12:42:29;;;;;;;0.50;0.40;;;11.90;88.50;;;;;;6036159;23;20413;-49
2022/11/17 12:45:08;;;;;;;0.60;0.40;;;11.90;88.60;;;;;;6084242;23;20878;-49
2022/11/17 12:47:39;;;;;;;1.50;0.50;;;11.90;88.50;;;;;;6034351;23;20760;-49
2022/11/17 12:50:38;;;;;;;1.70;0.70;;;11.90;88.50;;;;;;6060809;23;20384;-49
2022/11/17 12:53:38;;;;;;;0.50;0.40;;;11.90;88.50;;;;;;6036128;23;20421;-49
2022/11/17 12:56:30;;;;;;;2.20;0.50;;;11.90;88.50;;;;;;6036400;23;20427;-49
2022/11/17 12:59:17;;;;;;;1.00;0.60;;;11.90;88.50;;;;;;6035391;23;20435;-49
2022/11/17 13:01:55;;;;;;;0.97;0.53;;;11.90;88.40;;;;;;6035943;23;20704;-49
2022/11/17 13:04:34;;;;;;;1.37;0.40;;;11.90;88.40;;;;;;6035126;23;20440;-49
2022/11/17 13:07:05;;;;;;;0.50;0.40;;;11.90;88.50;;;;;;6036391;23;20369;-49
2022/11/17 13:09:35;;;;;;;1.10;0.40;;;11.90;88.40;;;;;;6034803;23;20436;-49
2022/11/17 13:12:05;;;;;;;0.80;0.50;;;11.90;88.40;;;;;;6036716;23;20420;-49
2022/11/17 13:14:35;;;;;;;1.27;0.60;;;11.90;88.40;;;;;;6035237;23;20464;-49
2022/11/17 13:17:11;;;;;;;2.10;0.60;;;11.90;88.40;;;;;;6036416;23;20400;-49
2022/11/17 13:19:42;;;;;;;0.80;0.70;;;12.00;88.50;;;;;;6036308;23;20450;-49
2022/11/17 13:22:17;;;;;;;1.70;0.50;;;11.90;88.40;;;;;;6037032;23;20401;-49
2022/11/17 13:25:21;;;;;;;1.20;0.60;;;11.90;88.30;;;;;;6061009;23;20474;-50
2022/11/17 13:28:44;;;;;;;0.60;0.50;;;11.90;88.30;;;;;;6085039;23;20480;-49
2022/11/17 13:31:28;;;;;;;0.63;0.50;;;12.00;88.30;;;;;;6083749;23;20435;-49
2022/11/17 13:37:02;;;;;;;1.00;0.40;;;12.00;88.30;;;;;;6012891;23;20388;-49
2022/11/17 13:40:00;;;;;;;0.80;0.40;;;12.00;88.30;;;;;;6047138;23;20440;-50
2022/11/17 13:42:33;;;;;;;0.60;0.40;;;12.00;88.30;;;;;;6035752;23;20443;-49
2022/11/17 13:45:05;;;;;;;0.90;0.50;;;12.00;88.20;;;;;;6024030;23;20408;-49
2022/11/17 13:47:45;;;;;;;0.60;0.40;;;12.00;89.50;;;;;;6061107;23;20890;-49
2022/11/17 13:50:38;;;;;;;0.70;0.50;;;12.00;88.20;;;;;;6036951;23;20908;-49
2022/11/17 13:53:26;;;;;;;0.50;0.33;;;12.00;88.00;;;;;;6035385;23;20972;-49
2022/11/17 13:55:55;;;;;;;0.70;0.50;;;12.00;88.00;;;;;;6036854;23;20496;-49
2022/11/17 13:58:35;;;;;;;0.80;0.50;;;12.00;87.90;;;;;;6083105;23;20511;-49